Time;durP1;ratioP1;P1;durP2;ratioP2;P2;SDS_P1;SDS_P2;PMS_P1;PMS_P2;Temp;Humidity;BMP_temperature;BMP_pressure;BME280_temperature;BME280_humidity;BME280_pressure;Samples;Min_cycle;Max_cycle;Signal;HPM_P1;HPM_P2
2021/09/29 00:02:17;;;;;;;3.10;1.58;;;;;;;;;;5063732;28;20039;-71
2021/09/29 00:05:01;;;;;;;3.83;1.67;;;;;;;;;;5062717;28;20094;-70
2021/09/29 00:07:46;;;;;;;3.90;1.50;;;;;;;;;;5060284;28;20497;-70
2021/09/29 00:10:31;;;;;;;2.17;1.25;;;;;;;;;;5064298;28;20040;-71
2021/09/29 00:13:16;;;;;;;2.33;1.15;;;;;;;;;;5058854;28;20159;-71
2021/09/29 00:16:01;;;;;;;2.58;1.27;;;;;;;;;;5062985;28;20113;-70
2021/09/29 00:18:45;;;;;;;2.67;1.35;;;;;;;;;;5063564;28;20043;-71
2021/09/29 00:21:30;;;;;;;1.73;1.17;;;;;;;;;;5064200;28;20035;-70
2021/09/29 00:24:14;;;;;;;2.85;1.50;;;;;;;;;;5048589;28;20048;-70
2021/09/29 00:26:59;;;;;;;3.42;1.40;;;;;;;;;;5064148;28;20578;-71
2021/09/29 00:29:44;;;;;;;2.45;1.40;;;;;;;;;;5057856;28;20098;-72
2021/09/29 00:32:28;;;;;;;2.67;1.63;;;;;;;;;;5046852;28;20067;-71
2021/09/29 00:35:14;;;;;;;3.75;1.40;;;;;;;;;;5068774;28;20055;-72
2021/09/29 00:37:58;;;;;;;3.22;1.30;;;;;;;;;;5063872;28;20070;-71
2021/09/29 00:40:43;;;;;;;2.85;1.25;;;;;;;;;;5060946;28;20071;-72
2021/09/29 00:43:28;;;;;;;1.90;1.10;;;;;;;;;;5050268;28;20139;-71
2021/09/29 00:46:12;;;;;;;3.40;1.30;;;;;;;;;;5064332;28;20036;-71
2021/09/29 00:48:57;;;;;;;2.17;1.30;;;;;;;;;;5064922;28;20101;-72
2021/09/29 00:51:42;;;;;;;2.58;1.60;;;;;;;;;;5064333;28;20101;-72
2021/09/29 00:54:29;;;;;;;4.05;1.30;;;;;;;;;;5063318;28;20047;-71
2021/09/29 00:57:13;;;;;;;3.28;1.40;;;;;;;;;;5062901;28;20078;-72
2021/09/29 00:59:58;;;;;;;2.63;1.00;;;;;;;;;;5049403;28;20576;-71
2021/09/29 01:02:42;;;;;;;1.58;1.13;;;;;;;;;;5045670;28;20577;-71
2021/09/29 01:05:27;;;;;;;2.10;1.10;;;;;;;;;;5060057;28;20181;-71
2021/09/29 01:08:15;;;;;;;2.47;1.23;;;;;;;;;;5064790;28;20082;-70
2021/09/29 01:11:07;;;;;;;4.38;1.40;;;;;;;;;;5064986;28;20047;-74
2021/09/29 01:14:18;;;;;;;2.72;1.17;;;;;;;;;;5063294;28;20097;-71
2021/09/29 01:17:03;;;;;;;2.55;1.10;;;;;;;;;;5066078;28;20143;-71
2021/09/29 01:19:51;;;;;;;3.53;1.17;;;;;;;;;;5064358;28;20052;-72
2021/09/29 01:22:41;;;;;;;2.05;1.27;;;;;;;;;;5064990;28;20048;-74
2021/09/29 01:25:38;;;;;;;2.63;1.00;;;;;;;;;;5063716;28;20051;-73
2021/09/29 01:28:34;;;;;;;1.60;1.00;;;;;;;;;;5048913;28;20416;-72
2021/09/29 01:31:19;;;;;;;2.40;1.40;;;;;;;;;;5062670;28;20102;-72
2021/09/29 01:34:04;;;;;;;3.25;1.23;;;;;;;;;;5049621;28;20051;-72
2021/09/29 01:36:48;;;;;;;2.60;1.15;;;;;;;;;;5063808;28;20043;-71
2021/09/29 01:39:33;;;;;;;2.67;1.08;;;;;;;;;;5063518;28;20155;-71
2021/09/29 01:42:17;;;;;;;3.00;1.23;;;;;;;;;;5067361;28;20036;-71
2021/09/29 01:45:02;;;;;;;3.45;1.30;;;;;;;;;;5053118;28;20074;-71
2021/09/29 01:47:48;;;;;;;2.75;1.20;;;;;;;;;;5066920;28;20043;-71
2021/09/29 01:50:33;;;;;;;2.33;1.30;;;;;;;;;;5054067;28;20144;-71
2021/09/29 01:53:17;;;;;;;2.70;1.20;;;;;;;;;;5060315;28;20092;-71
2021/09/29 01:56:02;;;;;;;2.67;1.15;;;;;;;;;;5071219;28;20126;-71
2021/09/29 01:58:46;;;;;;;1.95;1.10;;;;;;;;;;5070453;28;20055;-71
2021/09/29 02:01:35;;;;;;;4.47;1.35;;;;;;;;;;5070149;28;20496;-71
2021/09/29 02:04:20;;;;;;;2.58;1.23;;;;;;;;;;5070557;28;20094;-71
2021/09/29 02:07:04;;;;;;;1.92;1.10;;;;;;;;;;5069840;28;20056;-71
2021/09/29 02:09:50;;;;;;;2.97;1.30;;;;;;;;;;5070173;28;20043;-71
2021/09/29 02:12:37;;;;;;;2.33;1.00;;;;;;;;;;5069200;28;20044;-71
2021/09/29 02:15:22;;;;;;;1.67;0.95;;;;;;;;;;5071225;28;20039;-71
2021/09/29 02:18:07;;;;;;;1.95;1.02;;;;;;;;;;5064066;28;20605;-71
2021/09/29 02:20:52;;;;;;;2.15;1.15;;;;;;;;;;5050315;28;20792;-71
2021/09/29 02:23:37;;;;;;;1.73;1.10;;;;;;;;;;5052368;28;20051;-72
2021/09/29 02:26:21;;;;;;;2.25;1.13;;;;;;;;;;5069647;28;20035;-71
2021/09/29 02:29:06;;;;;;;3.92;1.00;;;;;;;;;;5049821;28;20118;-71
2021/09/29 02:31:51;;;;;;;2.10;1.00;;;;;;;;;;5060099;28;20116;-71
2021/09/29 02:34:35;;;;;;;2.10;1.05;;;;;;;;;;5065589;28;20039;-71
2021/09/29 02:37:20;;;;;;;1.95;1.00;;;;;;;;;;5069045;28;20035;-71
2021/09/29 02:40:05;;;;;;;1.90;1.10;;;;;;;;;;5048129;28;20123;-71
2021/09/29 02:42:50;;;;;;;2.70;1.03;;;;;;;;;;5048103;28;20087;-71
2021/09/29 02:45:35;;;;;;;2.63;1.02;;;;;;;;;;5065858;28;20050;-71
2021/09/29 02:48:19;;;;;;;2.22;1.02;;;;;;;;;;5068208;28;20045;-71
2021/09/29 02:51:04;;;;;;;2.78;1.17;;;;;;;;;;5052303;28;20124;-71
2021/09/29 02:53:48;;;;;;;2.67;0.90;;;;;;;;;;5067107;28;20036;-71
2021/09/29 02:56:33;;;;;;;2.65;0.90;;;;;;;;;;5067815;28;20478;-71
2021/09/29 02:59:17;;;;;;;2.30;1.10;;;;;;;;;;5048263;28;20206;-71
2021/09/29 03:02:02;;;;;;;1.90;0.98;;;;;;;;;;5063177;28;20082;-71
2021/09/29 03:04:46;;;;;;;1.70;1.00;;;;;;;;;;5078037;28;20117;-72
2021/09/29 03:07:31;;;;;;;2.30;1.00;;;;;;;;;;5066244;28;20089;-71
2021/09/29 03:10:16;;;;;;;2.38;1.10;;;;;;;;;;5068190;28;20518;-71
2021/09/29 03:13:01;;;;;;;1.73;1.00;;;;;;;;;;5048004;28;20043;-71
2021/09/29 03:15:45;;;;;;;1.75;0.80;;;;;;;;;;5064300;28;20090;-71
2021/09/29 03:18:30;;;;;;;1.77;0.98;;;;;;;;;;5066564;28;20120;-71
2021/09/29 03:21:14;;;;;;;1.83;1.02;;;;;;;;;;5066703;28;20093;-71
2021/09/29 03:23:59;;;;;;;2.53;0.90;;;;;;;;;;5051878;28;20051;-71
2021/09/29 03:26:43;;;;;;;2.25;1.45;;;;;;;;;;5066005;28;20524;-71
2021/09/29 03:29:28;;;;;;;1.70;0.88;;;;;;;;;;5066080;28;20043;-71
2021/09/29 03:32:12;;;;;;;2.40;0.90;;;;;;;;;;5065214;28;20036;-71
2021/09/29 03:34:57;;;;;;;4.90;1.20;;;;;;;;;;5065511;28;20043;-71
2021/09/29 03:37:43;;;;;;;2.47;0.80;;;;;;;;;;5066135;28;20784;-71
2021/09/29 03:40:27;;;;;;;2.20;0.80;;;;;;;;;;5051480;28;20504;-71
2021/09/29 03:43:12;;;;;;;1.92;0.90;;;;;;;;;;5006829;28;1142493;-71
2021/09/29 03:45:57;;;;;;;2.33;0.70;;;;;;;;;;5064502;28;20548;-71
2021/09/29 03:48:42;;;;;;;2.10;0.95;;;;;;;;;;5066457;28;20121;-71
2021/09/29 03:51:27;;;;;;;1.85;0.90;;;;;;;;;;5066247;28;20039;-71
2021/09/29 03:54:11;;;;;;;2.53;0.90;;;;;;;;;;5052364;28;20808;-71
2021/09/29 03:56:55;;;;;;;1.27;0.82;;;;;;;;;;5060033;28;20047;-71
2021/09/29 03:59:40;;;;;;;1.98;0.70;;;;;;;;;;5065912;28;20035;-71
2021/09/29 04:02:24;;;;;;;4.00;0.90;;;;;;;;;;5066866;28;20504;-71
2021/09/29 04:05:09;;;;;;;0.82;0.50;;;;;;;;;;5066655;28;20471;-71
2021/09/29 04:07:54;;;;;;;1.10;0.68;;;;;;;;;;5046879;28;20068;-71
2021/09/29 04:10:38;;;;;;;3.17;0.75;;;;;;;;;;5066308;28;20498;-71
2021/09/29 04:13:23;;;;;;;2.17;0.68;;;;;;;;;;5066200;28;20043;-71
2021/09/29 04:16:08;;;;;;;1.60;0.80;;;;;;;;;;5066655;28;20083;-71
2021/09/29 04:18:52;;;;;;;2.28;0.60;;;;;;;;;;5051836;28;20404;-71
2021/09/29 04:21:37;;;;;;;2.15;0.70;;;;;;;;;;5065934;28;20040;-71
2021/09/29 04:24:22;;;;;;;3.05;0.82;;;;;;;;;;5065913;28;20083;-71
2021/09/29 04:27:08;;;;;;;2.35;0.80;;;;;;;;;;5058831;28;20094;-71
2021/09/29 04:29:52;;;;;;;2.40;0.70;;;;;;;;;;5060648;28;20043;-71
2021/09/29 04:32:36;;;;;;;1.67;0.63;;;;;;;;;;5051603;28;20039;-71
2021/09/29 04:35:21;;;;;;;3.38;0.77;;;;;;;;;;5066118;28;20043;-71
2021/09/29 04:38:06;;;;;;;2.60;0.80;;;;;;;;;;5066706;28;20547;-71
2021/09/29 04:40:50;;;;;;;3.08;0.85;;;;;;;;;;5065765;28;20524;-71
2021/09/29 04:43:35;;;;;;;1.77;0.60;;;;;;;;;;5052053;28;20070;-72
2021/09/29 04:46:20;;;;;;;4.82;1.25;;;;;;;;;;5046097;28;20507;-71
2021/09/29 04:49:04;;;;;;;2.78;0.80;;;;;;;;;;5049717;28;20075;-71
2021/09/29 04:51:49;;;;;;;1.02;0.50;;;;;;;;;;5063548;28;20120;-72
2021/09/29 04:54:34;;;;;;;1.50;0.75;;;;;;;;;;5064765;28;20144;-71
2021/09/29 04:57:18;;;;;;;2.10;0.70;;;;;;;;;;5063128;28;20043;-72
2021/09/29 05:00:03;;;;;;;2.35;1.05;;;;;;;;;;5063342;28;20051;-72
2021/09/29 05:02:48;;;;;;;1.88;1.10;;;;;;;;;;5064494;28;20675;-71
2021/09/29 05:05:36;;;;;;;2.45;0.73;;;;;;;;;;5062974;28;20473;-71
2021/09/29 05:08:21;;;;;;;2.03;0.80;;;;;;;;;;5063513;28;20054;-71
2021/09/29 05:11:06;;;;;;;2.20;0.70;;;;;;;;;;5049284;28;20174;-72
2021/09/29 05:13:51;;;;;;;2.15;0.70;;;;;;;;;;5064377;28;20467;-71
2021/09/29 05:16:36;;;;;;;3.10;0.63;;;;;;;;;;5063386;28;20488;-72
2021/09/29 05:19:20;;;;;;;0.98;0.52;;;;;;;;;;5048619;28;20816;-71
2021/09/29 05:22:07;;;;;;;1.25;0.55;;;;;;;;;;5064253;28;20044;-71
2021/09/29 05:24:51;;;;;;;1.63;0.63;;;;;;;;;;5064297;28;20456;-71
2021/09/29 05:27:36;;;;;;;2.65;0.70;;;;;;;;;;5049045;28;20090;-71
2021/09/29 05:30:20;;;;;;;0.82;0.57;;;;;;;;;;5062938;28;20591;-71
2021/09/29 05:33:05;;;;;;;1.63;0.60;;;;;;;;;;5045807;28;20417;-73
2021/09/29 05:35:49;;;;;;;2.25;0.70;;;;;;;;;;5063017;28;20146;-72
2021/09/29 05:38:34;;;;;;;3.13;0.73;;;;;;;;;;5063052;28;20061;-71
2021/09/29 05:41:18;;;;;;;2.10;0.60;;;;;;;;;;5055431;28;20124;-73
2021/09/29 05:44:03;;;;;;;2.55;0.68;;;;;;;;;;5061787;28;20097;-72
2021/09/29 05:46:47;;;;;;;2.22;0.77;;;;;;;;;;5064142;28;20043;-71
2021/09/29 05:49:32;;;;;;;1.80;0.70;;;;;;;;;;5064008;28;20405;-72
2021/09/29 05:52:17;;;;;;;0.85;0.50;;;;;;;;;;5063512;28;20039;-71
2021/09/29 05:55:01;;;;;;;2.00;0.60;;;;;;;;;;5059858;28;20116;-72
2021/09/29 05:57:46;;;;;;;2.55;0.70;;;;;;;;;;5060669;28;20061;-71
2021/09/29 06:00:31;;;;;;;2.53;0.60;;;;;;;;;;5063085;28;22015;-71
2021/09/29 06:03:18;;;;;;;0.98;0.60;;;;;;;;;;5064344;28;20048;-71
2021/09/29 06:06:03;;;;;;;2.17;0.60;;;;;;;;;;5041439;28;20075;-72
2021/09/29 06:08:47;;;;;;;1.27;0.60;;;;;;;;;;5047465;28;20090;-71
2021/09/29 06:11:32;;;;;;;4.75;0.80;;;;;;;;;;5062502;28;20728;-72
2021/09/29 06:14:16;;;;;;;2.88;0.98;;;;;;;;;;5052038;28;20116;-71
2021/09/29 06:18:12;;;;;;;1.83;0.70;;;;;;;;;;5048621;28;20083;-71
2021/09/29 06:20:18;;;;;;;2.78;0.70;;;;;;;;;;5060442;28;20043;-71
2021/09/29 06:23:03;;;;;;;1.92;0.82;;;;;;;;;;5048941;28;20048;-72
2021/09/29 06:25:48;;;;;;;2.42;0.70;;;;;;;;;;5063133;28;20421;-72
2021/09/29 06:28:34;;;;;;;2.72;0.75;;;;;;;;;;5055345;28;20040;-71
2021/09/29 06:31:19;;;;;;;2.67;0.77;;;;;;;;;;5060606;28;20092;-72
2021/09/29 06:34:04;;;;;;;1.58;0.70;;;;;;;;;;5056171;28;20619;-72
2021/09/29 06:36:48;;;;;;;2.65;0.90;;;;;;;;;;5047480;28;20430;-71
2021/09/29 06:39:32;;;;;;;3.08;0.77;;;;;;;;;;5047644;28;20516;-72
2021/09/29 06:42:17;;;;;;;4.10;0.70;;;;;;;;;;5046392;28;20035;-72
2021/09/29 06:45:02;;;;;;;2.10;0.80;;;;;;;;;;5047506;28;20128;-72
2021/09/29 06:47:48;;;;;;;2.33;0.90;;;;;;;;;;5047128;28;20086;-71
2021/09/29 06:50:33;;;;;;;2.63;0.90;;;;;;;;;;5046261;28;20075;-73
2021/09/29 06:53:18;;;;;;;1.05;0.60;;;;;;;;;;5046122;28;20481;-71
2021/09/29 06:56:05;;;;;;;3.25;0.90;;;;;;;;;;5046156;28;20112;-71
2021/09/29 06:58:53;;;;;;;3.28;0.77;;;;;;;;;;5064384;28;20042;-71
2021/09/29 07:01:38;;;;;;;3.13;0.90;;;;;;;;;;5064721;28;20044;-73
2021/09/29 07:04:22;;;;;;;3.13;1.05;;;;;;;;;;5050348;28;20051;-73
2021/09/29 07:07:07;;;;;;;1.88;0.65;;;;;;;;;;5064539;28;20039;-71
2021/09/29 07:09:51;;;;;;;1.35;0.55;;;;;;;;;;5062547;28;20117;-71
2021/09/29 07:12:36;;;;;;;2.22;0.70;;;;;;;;;;5063964;28;20039;-72
2021/09/29 07:15:21;;;;;;;2.85;0.90;;;;;;;;;;5062371;28;20071;-71
2021/09/29 07:18:08;;;;;;;2.65;0.70;;;;;;;;;;5048615;28;20094;-72
2021/09/29 07:20:52;;;;;;;3.45;0.80;;;;;;;;;;5067332;28;20110;-72
2021/09/29 07:23:37;;;;;;;2.10;0.70;;;;;;;;;;5085675;28;20047;-71
2021/09/29 07:26:22;;;;;;;2.88;0.77;;;;;;;;;;5078361;28;20095;-71
2021/09/29 07:29:06;;;;;;;2.15;0.70;;;;;;;;;;5044709;28;20044;-72
2021/09/29 07:31:51;;;;;;;2.88;0.77;;;;;;;;;;5060150;28;20106;-72
2021/09/29 07:34:35;;;;;;;2.25;1.00;;;;;;;;;;5055083;28;20146;-72
2021/09/29 07:37:20;;;;;;;3.05;0.80;;;;;;;;;;5064651;28;20047;-71
2021/09/29 07:40:05;;;;;;;3.53;1.20;;;;;;;;;;5044675;28;20158;-71
2021/09/29 07:42:49;;;;;;;2.55;0.77;;;;;;;;;;5030358;28;20129;-72
2021/09/29 07:45:34;;;;;;;1.33;0.55;;;;;;;;;;5048621;28;20239;-71
2021/09/29 07:48:18;;;;;;;1.85;0.65;;;;;;;;;;5064152;28;20631;-71
2021/09/29 07:51:03;;;;;;;1.55;0.55;;;;;;;;;;5065271;28;20046;-74
2021/09/29 07:53:47;;;;;;;2.47;0.90;;;;;;;;;;5049003;28;20625;-71
2021/09/29 07:56:32;;;;;;;2.67;0.80;;;;;;;;;;5064202;28;20043;-71
2021/09/29 07:59:16;;;;;;;3.25;0.98;;;;;;;;;;5044677;28;20203;-71
2021/09/29 08:02:01;;;;;;;2.20;0.73;;;;;;;;;;5056344;28;20039;-71
2021/09/29 08:04:45;;;;;;;4.45;0.80;;;;;;;;;;5064224;28;20059;-71
2021/09/29 08:07:30;;;;;;;2.17;0.75;;;;;;;;;;5064309;28;20043;-72
2021/09/29 08:10:14;;;;;;;2.38;0.68;;;;;;;;;;5065845;28;20133;-71
2021/09/29 08:12:59;;;;;;;3.88;0.80;;;;;;;;;;5064043;28;20055;-71
2021/09/29 08:15:43;;;;;;;3.55;0.90;;;;;;;;;;5064382;28;20094;-71
2021/09/29 08:18:28;;;;;;;2.25;0.73;;;;;;;;;;5044887;28;20074;-71
2021/09/29 08:21:16;;;;;;;2.65;0.90;;;;;;;;;;5031179;28;20040;-72
2021/09/29 08:24:11;;;;;;;3.50;0.80;;;;;;;;;;5048419;28;20063;-71
2021/09/29 08:32:38;;;;;;;4.55;1.30;;;;;;;;;;5064784;28;20048;-72
2021/09/29 08:38:53;;;;;;;2.42;0.70;;;;;;;;;;5063940;28;20067;-71
2021/09/29 08:44:25;;;;;;;1.30;0.80;;;;;;;;;;5054089;28;20129;-71
2021/09/29 08:50:09;;;;;;;3.50;1.45;;;;;;;;;;5063868;28;20044;-72
2021/09/29 09:17:28;;;;;;;3.45;0.90;;;;;;;;;;5058852;28;20063;-72
2021/09/29 09:20:16;;;;;;;2.80;0.80;;;;;;;;;;5048297;28;20070;-72
2021/09/29 09:23:00;;;;;;;2.15;0.80;;;;;;;;;;5063280;28;20055;-72
2021/09/29 09:25:45;;;;;;;2.63;1.00;;;;;;;;;;5047647;28;20043;-72
2021/09/29 09:28:30;;;;;;;4.20;1.00;;;;;;;;;;5044695;28;20081;-72
2021/09/29 09:31:16;;;;;;;3.63;1.42;;;;;;;;;;5056951;28;20067;-73
2021/09/29 09:34:02;;;;;;;2.95;1.00;;;;;;;;;;5063914;28;20038;-73
2021/09/29 09:36:49;;;;;;;2.38;0.90;;;;;;;;;;5062058;28;20089;-72
2021/09/29 09:39:34;;;;;;;2.72;0.90;;;;;;;;;;5043840;28;20468;-72
2021/09/29 09:42:21;;;;;;;3.15;0.93;;;;;;;;;;5052004;28;20066;-72
2021/09/29 09:45:06;;;;;;;1.98;1.02;;;;;;;;;;5064872;28;20417;-72
2021/09/29 09:47:51;;;;;;;3.03;0.90;;;;;;;;;;5039736;28;20038;-71
2021/09/29 09:50:35;;;;;;;2.15;0.90;;;;;;;;;;5040033;28;20042;-71
2021/09/29 09:53:20;;;;;;;5.03;1.10;;;;;;;;;;5051015;28;20215;-71
2021/09/29 09:56:13;;;;;;;2.95;0.90;;;;;;;;;;5063808;28;20057;-72
2021/09/29 09:58:58;;;;;;;2.42;0.98;;;;;;;;;;5063202;28;20905;-72
2021/09/29 10:01:43;;;;;;;2.88;0.90;;;;;;;;;;5066278;28;20417;-71
2021/09/29 10:04:27;;;;;;;2.38;0.90;;;;;;;;;;5067714;28;20047;-71
2021/09/29 10:07:12;;;;;;;2.25;0.93;;;;;;;;;;5065914;28;20039;-71
2021/09/29 10:13:27;;;;;;;2.72;1.00;;;;;;;;;;5074914;28;20617;-71
2021/09/29 10:28:38;;;;;;;3.20;0.90;;;;;;;;;;5082933;28;20075;-72
2021/09/29 10:40:20;;;;;;;3.83;1.10;;;;;;;;;;5062099;28;20685;-72
2021/09/29 10:43:05;;;;;;;2.47;0.90;;;;;;;;;;5064709;28;20512;-72
2021/09/29 10:46:16;;;;;;;3.45;0.98;;;;;;;;;;5063050;28;20102;-72
2021/09/29 10:49:12;;;;;;;1.88;0.90;;;;;;;;;;5060632;28;20047;-72
2021/09/29 11:07:44;;;;;;;3.05;1.08;;;;;;;;;;5063682;28;20128;-70
2021/09/29 11:31:35;;;;;;;4.25;1.25;;;;;;;;;;5056103;28;20074;-69
2021/09/29 11:34:24;;;;;;;4.97;1.25;;;;;;;;;;5057331;28;20052;-69
2021/09/29 11:37:27;;;;;;;3.50;1.10;;;;;;;;;;5060369;28;20040;-68
2021/09/29 12:10:58;;;;;;;3.65;1.30;;;;;;;;;;5056089;28;20035;-69
2021/09/29 12:14:01;;;;;;;2.53;1.20;;;;;;;;;;5070987;28;20050;-68
2021/09/29 12:16:46;;;;;;;5.50;1.60;;;;;;;;;;5061552;28;20418;-72
2021/09/29 12:19:36;;;;;;;4.72;1.30;;;;;;;;;;5082755;28;20441;-71
2021/09/29 12:22:21;;;;;;;3.95;1.20;;;;;;;;;;5070935;28;20039;-71
2021/09/29 12:25:10;;;;;;;5.00;1.30;;;;;;;;;;5083864;28;20054;-69
2021/09/29 12:28:18;;;;;;;4.63;1.27;;;;;;;;;;5074357;28;20070;-69
2021/09/29 12:36:41;;;;;;;4.28;1.23;;;;;;;;;;5066731;28;20046;-69
2021/09/29 12:39:28;;;;;;;4.50;1.45;;;;;;;;;;5054403;28;20460;-68
2021/09/29 12:42:13;;;;;;;3.45;1.55;;;;;;;;;;5056954;28;20066;-69
2021/09/29 12:44:57;;;;;;;3.47;1.30;;;;;;;;;;5053417;28;20055;-68
2021/09/29 12:47:45;;;;;;;3.15;1.20;;;;;;;;;;5054344;28;20910;-69
2021/09/29 12:56:16;;;;;;;3.50;1.20;;;;;;;;;;5064894;28;20123;-69
2021/09/29 12:59:01;;;;;;;3.97;1.30;;;;;;;;;;5062569;28;20039;-70
2021/09/29 13:01:46;;;;;;;4.20;1.42;;;;;;;;;;5063101;28;20084;-70
2021/09/29 13:04:31;;;;;;;2.33;1.15;;;;;;;;;;5063293;28;20047;-70
2021/09/29 13:07:15;;;;;;;3.45;1.40;;;;;;;;;;5070366;28;20078;-70
2021/09/29 13:10:00;;;;;;;4.00;1.17;;;;;;;;;;5037039;28;20047;-70
2021/09/29 13:12:45;;;;;;;3.85;1.33;;;;;;;;;;5065071;28;20043;-70
2021/09/29 13:15:30;;;;;;;2.35;1.08;;;;;;;;;;5047089;28;20481;-71
2021/09/29 13:21:34;;;;;;;3.28;1.15;;;;;;;;;;5057504;28;20071;-70
2021/09/29 13:24:49;;;;;;;3.10;1.05;;;;;;;;;;5081209;28;20078;-70
2021/09/29 13:36:43;;;;;;;2.28;1.00;;;;;;;;;;5072524;28;20043;-72
2021/09/29 13:39:29;;;;;;;5.65;1.23;;;;;;;;;;5065263;28;20102;-71
2021/09/29 13:42:15;;;;;;;5.25;1.05;;;;;;;;;;5065836;28;20097;-70
2021/09/29 13:45:00;;;;;;;3.20;1.13;;;;;;;;;;5067168;28;20075;-70
2021/09/29 13:47:45;;;;;;;7.47;1.50;;;;;;;;;;5070341;28;20475;-70
2021/09/29 13:50:29;;;;;;;2.78;1.10;;;;;;;;;;5068062;28;20097;-69
2021/09/29 13:53:14;;;;;;;4.35;1.30;;;;;;;;;;5087751;28;20120;-71
2021/09/29 13:56:02;;;;;;;4.18;1.23;;;;;;;;;;5088071;28;20057;-71
2021/09/29 13:59:18;;;;;;;4.28;1.20;;;;;;;;;;5059738;28;20437;-70
2021/09/29 14:29:45;;;;;;;3.05;1.20;;;;;;;;;;5068069;28;20067;-70
2021/09/29 14:32:32;;;;;;;3.17;1.30;;;;;;;;;;5064457;28;20757;-69
2021/09/29 14:35:17;;;;;;;2.08;0.88;;;;;;;;;;5059713;28;20140;-70
2021/09/29 14:38:02;;;;;;;3.72;1.10;;;;;;;;;;5046729;28;20496;-70
2021/09/29 14:40:49;;;;;;;1.95;1.00;;;;;;;;;;5050585;28;20093;-70
2021/09/29 14:43:34;;;;;;;2.72;0.93;;;;;;;;;;5042920;28;20628;-70
2021/09/29 14:46:19;;;;;;;2.50;1.20;;;;;;;;;;5052556;28;21165;-69
2021/09/29 14:49:03;;;;;;;4.32;1.15;;;;;;;;;;5064193;28;20090;-70
2021/09/29 14:51:48;;;;;;;3.92;1.40;;;;;;;;;;5065802;28;20048;-69
2021/09/29 14:54:33;;;;;;;2.50;0.98;;;;;;;;;;5049401;28;20143;-70
2021/09/29 14:57:17;;;;;;;2.20;0.93;;;;;;;;;;5059637;28;20508;-71
2021/09/29 15:00:02;;;;;;;2.83;0.82;;;;;;;;;;5067308;28;20535;-70
2021/09/29 15:02:46;;;;;;;3.60;1.33;;;;;;;;;;5065133;28;20043;-70
2021/09/29 15:05:31;;;;;;;1.75;0.90;;;;;;;;;;5065654;28;20051;-70
2021/09/29 15:08:16;;;;;;;1.75;0.90;;;;;;;;;;5046313;28;20401;-70
2021/09/29 15:11:01;;;;;;;2.70;0.95;;;;;;;;;;5046431;28;20036;-70
2021/09/29 15:13:54;;;;;;;3.10;1.10;;;;;;;;;;5060909;28;20048;-70
2021/09/29 15:19:36;;;;;;;2.63;1.10;;;;;;;;;;5047417;28;20099;-70
2021/09/29 15:52:42;;;;;;;1.45;0.75;;;;;;;;;;5068422;28;20141;-71
2021/09/29 16:01:37;;;;;;;3.42;1.00;;;;;;;;;;5073311;28;20140;-71
2021/09/29 16:16:25;;;;;;;3.17;1.05;;;;;;;;;;5082505;28;20043;-71
2021/09/29 16:31:27;;;;;;;2.92;1.10;;;;;;;;;;5065471;28;20044;-70
2021/09/29 16:34:28;;;;;;;4.93;1.33;;;;;;;;;;5046677;28;20031;-71
2021/09/29 16:37:12;;;;;;;3.85;1.40;;;;;;;;;;5068670;28;20089;-71
2021/09/29 16:39:58;;;;;;;3.42;1.40;;;;;;;;;;5045760;28;20047;-71
2021/09/29 16:42:45;;;;;;;2.75;1.15;;;;;;;;;;5087047;28;20301;-72
2021/09/29 16:45:30;;;;;;;2.85;1.08;;;;;;;;;;5069094;28;20063;-72
2021/09/29 16:48:20;;;;;;;3.22;1.10;;;;;;;;;;5062395;28;20043;-72
2021/09/29 16:51:22;;;;;;;2.92;1.15;;;;;;;;;;5056416;28;20046;-71
2021/09/29 16:54:10;;;;;;;2.67;1.30;;;;;;;;;;5063980;28;20031;-72
2021/09/29 16:56:55;;;;;;;3.10;1.30;;;;;;;;;;5052533;28;20044;-72
2021/09/29 16:59:55;;;;;;;2.53;1.00;;;;;;;;;;5061188;28;20178;-73
2021/09/29 17:02:40;;;;;;;2.97;1.10;;;;;;;;;;5059117;28;20032;-72
2021/09/29 17:05:24;;;;;;;2.65;1.15;;;;;;;;;;5064473;28;20165;-71
2021/09/29 17:08:10;;;;;;;2.70;1.20;;;;;;;;;;5062198;28;20040;-72
2021/09/29 17:10:55;;;;;;;3.88;1.50;;;;;;;;;;5045595;28;20702;-71
2021/09/29 17:13:40;;;;;;;3.03;0.98;;;;;;;;;;5057994;28;20060;-72
2021/09/29 17:16:26;;;;;;;3.13;1.38;;;;;;;;;;5059722;28;20120;-72
2021/09/29 17:19:11;;;;;;;2.80;1.10;;;;;;;;;;5062312;28;20086;-72
2021/09/29 17:21:58;;;;;;;3.20;1.20;;;;;;;;;;5050105;28;20039;-72
2021/09/29 17:24:44;;;;;;;2.85;1.38;;;;;;;;;;5038990;28;20127;-72
2021/09/29 17:27:29;;;;;;;3.72;1.55;;;;;;;;;;5053192;28;20896;-71
2021/09/29 17:30:14;;;;;;;2.78;1.23;;;;;;;;;;5069376;28;20482;-71
2021/09/29 17:36:05;;;;;;;4.50;1.67;;;;;;;;;;5063386;28;20093;-71
2021/09/29 17:52:11;;;;;;;2.97;1.35;;;;;;;;;;5044323;28;20508;-73
2021/09/29 17:54:21;;;;;;;2.53;1.38;;;;;;;;;;5061721;28;20105;-71
2021/09/29 17:57:06;;;;;;;4.88;1.40;;;;;;;;;;5064178;28;20125;-72
2021/09/29 17:59:50;;;;;;;3.50;1.30;;;;;;;;;;5067095;28;20039;-71
2021/09/29 18:02:45;;;;;;;1.95;1.30;;;;;;;;;;5067453;28;20102;-71
2021/09/29 18:08:14;;;;;;;3.85;1.58;;;;;;;;;;5066353;28;20118;-71
2021/09/29 18:10:59;;;;;;;3.53;1.30;;;;;;;;;;5069804;28;20047;-72
2021/09/29 18:13:44;;;;;;;4.60;1.50;;;;;;;;;;5083163;28;20400;-71
2021/09/29 18:16:29;;;;;;;3.20;1.40;;;;;;;;;;5065324;28;20083;-72
2021/09/29 18:19:13;;;;;;;3.20;1.27;;;;;;;;;;5066896;28;20467;-71
2021/09/29 18:21:58;;;;;;;3.42;1.52;;;;;;;;;;5067602;28;20043;-71
2021/09/29 18:24:43;;;;;;;3.58;1.48;;;;;;;;;;5053883;28;20055;-72
2021/09/29 18:27:28;;;;;;;2.58;1.38;;;;;;;;;;5070740;28;20067;-73
2021/09/29 18:30:15;;;;;;;2.65;1.40;;;;;;;;;;5070123;28;20074;-72
2021/09/29 18:33:04;;;;;;;4.25;1.63;;;;;;;;;;5080578;28;20074;-72
2021/09/29 18:35:53;;;;;;;3.22;1.52;;;;;;;;;;5052420;28;20296;-71
2021/09/29 18:38:40;;;;;;;3.80;1.52;;;;;;;;;;5067545;28;20058;-71
2021/09/29 18:41:25;;;;;;;3.47;1.40;;;;;;;;;;5063820;28;20124;-72
2021/09/29 18:44:12;;;;;;;3.47;1.38;;;;;;;;;;5090334;28;20336;-71
2021/09/29 18:46:57;;;;;;;4.38;1.50;;;;;;;;;;5057668;28;20097;-71
2021/09/29 18:49:42;;;;;;;3.00;1.70;;;;;;;;;;5068195;28;20085;-71
2021/09/29 18:52:27;;;;;;;3.75;1.45;;;;;;;;;;5055151;28;20059;-70
2021/09/29 18:55:15;;;;;;;3.22;1.45;;;;;;;;;;5050417;28;20067;-71
2021/09/29 19:04:21;;;;;;;4.10;1.65;;;;;;;;;;5068157;28;20056;-71
2021/09/29 19:09:54;;;;;;;4.25;1.50;;;;;;;;;;5064633;28;20126;-70
2021/09/29 19:12:39;;;;;;;3.67;1.52;;;;;;;;;;5066811;28;20031;-70
2021/09/29 19:15:23;;;;;;;2.28;1.40;;;;;;;;;;5066214;28;20417;-71
2021/09/29 19:18:08;;;;;;;2.85;1.80;;;;;;;;;;5066839;28;20142;-72
2021/09/29 19:20:53;;;;;;;2.95;1.60;;;;;;;;;;5064420;28;20052;-72
2021/09/29 19:23:37;;;;;;;2.40;1.33;;;;;;;;;;5067384;28;20043;-71
2021/09/29 19:26:27;;;;;;;3.50;1.70;;;;;;;;;;5054306;28;20036;-70
2021/09/29 19:29:12;;;;;;;3.83;1.70;;;;;;;;;;5068269;28;20040;-70
2021/09/29 19:31:57;;;;;;;2.80;1.65;;;;;;;;;;5069376;28;20044;-72
2021/09/29 19:34:41;;;;;;;4.20;1.75;;;;;;;;;;5048601;28;20086;-70
2021/09/29 19:37:26;;;;;;;4.15;1.98;;;;;;;;;;5052992;28;20043;-70
2021/09/29 19:40:11;;;;;;;3.38;1.70;;;;;;;;;;5069621;28;20121;-71
2021/09/29 19:42:56;;;;;;;2.90;2.05;;;;;;;;;;5053372;28;20052;-70
2021/09/29 19:45:41;;;;;;;3.58;1.70;;;;;;;;;;5048409;28;20220;-72
2021/09/29 19:51:48;;;;;;;3.25;1.58;;;;;;;;;;5068101;28;20512;-73
2021/09/29 20:09:31;;;;;;;2.47;1.40;;;;;;;;;;5055697;28;20039;-71
2021/09/29 20:12:16;;;;;;;3.65;1.42;;;;;;;;;;5058947;28;20068;-70
2021/09/29 20:15:05;;;;;;;3.50;1.63;;;;;;;;;;5047973;28;20489;-71
2021/09/29 20:17:51;;;;;;;3.95;1.52;;;;;;;;;;5053251;28;20121;-71
2021/09/29 20:20:36;;;;;;;3.65;1.30;;;;;;;;;;5046161;28;20124;-71
2021/09/29 20:23:21;;;;;;;2.92;1.67;;;;;;;;;;5056771;28;20074;-71
2021/09/29 20:26:06;;;;;;;3.58;1.50;;;;;;;;;;5074465;28;20069;-72
2021/09/29 20:28:51;;;;;;;2.35;1.20;;;;;;;;;;5047409;28;20421;-71
2021/09/29 20:31:35;;;;;;;2.60;1.38;;;;;;;;;;5047806;28;20087;-72
2021/09/29 20:35:01;;;;;;;2.95;1.42;;;;;;;;;;5064785;28;20119;-72
2021/09/29 20:43:49;;;;;;;2.83;1.27;;;;;;;;;;5047367;28;20083;-72
2021/09/29 20:46:34;;;;;;;2.40;1.10;;;;;;;;;;5048163;28;20043;-71
2021/09/29 20:49:18;;;;;;;3.97;1.40;;;;;;;;;;5047884;28;20401;-71
2021/09/29 20:52:03;;;;;;;2.72;1.30;;;;;;;;;;5059799;28;20328;-72
2021/09/29 20:54:48;;;;;;;2.83;1.40;;;;;;;;;;5048194;28;20386;-71
2021/09/29 20:57:32;;;;;;;5.05;1.40;;;;;;;;;;5065693;28;20039;-71
2021/09/29 21:00:17;;;;;;;2.65;1.50;;;;;;;;;;5067052;28;20043;-72
2021/09/29 21:03:02;;;;;;;2.72;1.10;;;;;;;;;;5046376;28;20572;-72
2021/09/29 21:05:47;;;;;;;2.22;1.30;;;;;;;;;;5054045;28;20106;-70
2021/09/29 21:08:35;;;;;;;4.18;1.10;;;;;;;;;;5066371;28;20040;-70
2021/09/29 21:11:29;;;;;;;2.88;1.23;;;;;;;;;;5061056;28;20094;-71
2021/09/29 21:14:17;;;;;;;3.92;1.20;;;;;;;;;;5066671;28;20040;-71
2021/09/29 21:20:06;;;;;;;4.32;1.15;;;;;;;;;;5055746;28;20500;-71
2021/09/29 21:22:50;;;;;;;2.15;0.90;;;;;;;;;;5065759;28;20039;-71
2021/09/29 21:25:36;;;;;;;3.63;1.20;;;;;;;;;;5053758;28;20532;-71
2021/09/29 21:28:20;;;;;;;3.55;1.30;;;;;;;;;;5063151;28;20397;-71
2021/09/29 21:31:05;;;;;;;3.33;1.05;;;;;;;;;;5052764;28;20500;-71
2021/09/29 21:33:54;;;;;;;2.50;1.13;;;;;;;;;;5051733;28;20413;-72
2021/09/29 21:36:40;;;;;;;2.22;1.20;;;;;;;;;;5063802;28;20094;-72
2021/09/29 21:40:12;;;;;;;2.63;1.10;;;;;;;;;;5064919;28;20075;-72